»·PEaware :: SWA2202 KSMF-KPHX

SWA2202 :: KSMF-KPHX

FLIGHT INFORMATION

Flight Status: Arrived
Operator:
Southwest Airlines
More flights by this operator :: More flights under this callsign
Pilot: Daniel W. (24238)
Aircraft: BOEING 737-700
(B737)
More flights by this aircraft type
Origin: KSMF Sacramento Intl
United States
Destination: KPHX Phoenix Sky Harbor Intl
United States
More flights between these airports :: More routes between these airports
Route: +SCTWN2 SCTWN DOSCO OAL LIDAT BTY J92 BLD PRFUM WOTRO BRUSR1
File this flight plan on PilotEdge
Remarks: PBN / A1D1O1S2T1 NAV / RNVD1E1A1 RNP10 DOF / 190710 REG / N221WN EET / KZLA0035 KZAB0107 CODE / A1E6B9 PER / C
Altitude:
(Current/Filed)
39,000ft
Speed:
(Current/Filed)
446kts
Departed: 10-Jul-19 01:56 PM
Arrived: 10-Jul-19 03:30 PM
Distance/Time
Traveled:
562nm/1:34
Distance/Time
To Go:
Arrived

Flight Plot

Page will automatically refresh every two minutes.

Flight plan parsing failed; only flown route is shown


Map Options




Map Legend


Flown Route
Filed Route
Departure Airport
Arrival Airport
Navaid (VOR, NDB)
Fix

Horizontal Profiles

Position Reports

Time Latitude Longitude Heading Altitude Ground
Speed
10-Jul-19 13:06 38.695155 -121.593480 13 36ft 0kts
10-Jul-19 13:07 38.695155 -121.593480 13 36ft 0kts
10-Jul-19 13:08 38.695155 -121.593480 13 36ft 0kts
10-Jul-19 13:09 38.695155 -121.593480 13 36ft 0kts
10-Jul-19 13:10 38.695155 -121.593480 13 36ft 0kts
10-Jul-19 13:11 38.695155 -121.593480 13 36ft 0kts
10-Jul-19 13:12 38.695155 -121.593480 13 36ft 0kts
10-Jul-19 13:13 38.695155 -121.593480 13 36ft 0kts
10-Jul-19 13:14 38.695155 -121.593480 13 36ft 0kts
10-Jul-19 13:15 38.695155 -121.593480 13 36ft 0kts
10-Jul-19 13:16 38.695155 -121.593480 13 36ft 0kts
10-Jul-19 13:17 38.695155 -121.593480 13 36ft 0kts
10-Jul-19 13:18 38.695155 -121.593480 13 36ft 0kts
10-Jul-19 13:19 38.695155 -121.593480 13 36ft 0kts
10-Jul-19 13:20 38.695155 -121.593480 13 36ft 0kts
10-Jul-19 13:21 38.695155 -121.593480 13 36ft 0kts
10-Jul-19 13:22 38.695155 -121.593480 13 36ft 0kts
10-Jul-19 13:23 38.695155 -121.593480 13 36ft 0kts
10-Jul-19 13:24 38.695155 -121.593480 13 36ft 0kts
10-Jul-19 13:25 38.695155 -121.593480 13 36ft 0kts
10-Jul-19 13:26 38.695155 -121.593480 13 36ft 0kts
10-Jul-19 13:27 38.695155 -121.593480 13 36ft 0kts
10-Jul-19 13:28 38.695155 -121.593480 13 36ft 0kts
10-Jul-19 13:29 38.695155 -121.593480 13 36ft 0kts
10-Jul-19 13:30 38.695155 -121.593480 13 36ft 0kts
10-Jul-19 13:31 38.695155 -121.593480 13 36ft 0kts
10-Jul-19 13:32 38.695155 -121.593480 13 36ft 0kts
10-Jul-19 13:33 38.695155 -121.593480 13 36ft 0kts
10-Jul-19 13:34 38.695155 -121.593480 13 36ft 0kts
10-Jul-19 13:35 38.695155 -121.593480 13 36ft 0kts
10-Jul-19 13:36 38.695155 -121.593480 13 36ft 0kts
10-Jul-19 13:37 38.695155 -121.593480 13 36ft 0kts
10-Jul-19 13:38 38.695155 -121.593480 13 36ft 0kts
10-Jul-19 13:39 38.695155 -121.593480 13 35ft 0kts
10-Jul-19 13:40 38.695155 -121.593480 13 35ft 0kts
10-Jul-19 13:41 38.695155 -121.593480 13 35ft 0kts
10-Jul-19 13:42 38.695155 -121.593480 13 35ft 0kts
10-Jul-19 13:43 38.695155 -121.593480 13 35ft 0kts
10-Jul-19 13:44 38.695155 -121.593480 13 35ft 0kts
10-Jul-19 13:45 38.695142 -121.593484 13 35ft 1kts
10-Jul-19 13:46 38.694531 -121.593677 13 35ft 2kts
10-Jul-19 13:47 38.694488 -121.593691 13 35ft 0kts
10-Jul-19 13:48 38.694488 -121.593691 13 35ft 0kts
10-Jul-19 13:49 38.696534 -121.595986 2 35ft 16kts
10-Jul-19 13:50 38.696935 -121.589555 88 35ft 0kts
10-Jul-19 13:51 38.697636 -121.585882 90 35ft 27kts
10-Jul-19 13:52 38.701001 -121.582788 0 35ft 28kts
10-Jul-19 13:53 38.706980 -121.582039 76 35ft 13kts
10-Jul-19 13:54 38.706238 -121.580070 180 35ft 17kts
10-Jul-19 13:55 38.674042 -121.580244 174 691ft 172kts
10-Jul-19 13:56 38.643374 -121.522505 106 2393ft 245kts
10-Jul-19 13:57 38.627876 -121.433805 101 5328ft 271kts
10-Jul-19 13:58 38.613050 -121.335224 102 9140ft 291kts
10-Jul-19 13:59 38.596391 -121.227281 103 11784ft 342kts
10-Jul-19 14:00 38.576609 -121.100176 104 14362ft 377kts
10-Jul-19 14:01 38.555714 -120.964904 103 17209ft 397kts
10-Jul-19 14:02 38.533964 -120.824106 103 19806ft 413kts
10-Jul-19 14:03 38.510866 -120.677084 103 22166ft 427kts
10-Jul-19 14:04 38.487158 -120.526208 103 24220ft 441kts
10-Jul-19 14:05 38.462253 -120.371043 103 26085ft 451kts
10-Jul-19 14:06 38.436515 -120.212847 103 27775ft 461kts
10-Jul-19 14:07 38.409463 -120.051403 103 29255ft 469kts
10-Jul-19 14:08 38.381531 -119.887227 104 30551ft 478kts
10-Jul-19 14:09 38.353414 -119.722248 103 32166ft 475kts
10-Jul-19 14:10 38.325575 -119.557887 103 33772ft 472kts
10-Jul-19 14:11 38.297529 -119.395096 103 35180ft 469kts
10-Jul-19 14:12 38.269424 -119.233758 103 36456ft 466kts
10-Jul-19 14:13 38.241226 -119.073378 103 37604ft 464kts
10-Jul-19 14:14 38.212981 -118.914134 103 38644ft 461kts
10-Jul-19 14:15 38.184544 -118.755126 103 39221ft 461kts
10-Jul-19 14:16 38.156157 -118.597686 103 39221ft 455kts
10-Jul-19 14:17 38.127655 -118.440880 103 39227ft 454kts
10-Jul-19 14:18 38.099099 -118.285021 103 39246ft 453kts
10-Jul-19 14:19 38.070484 -118.129127 103 39206ft 452kts
10-Jul-19 14:20 38.041681 -117.974050 103 39188ft 452kts
10-Jul-19 14:21 38.011615 -117.818813 110 39193ft 452kts
10-Jul-19 14:22 37.927771 -117.704347 145 39217ft 453kts
10-Jul-19 14:23 37.823133 -117.614851 145 39223ft 454kts
10-Jul-19 14:24 37.718752 -117.525292 145 39222ft 453kts
10-Jul-19 14:25 37.614214 -117.435088 145 39223ft 454kts
10-Jul-19 14:26 37.509640 -117.345744 145 39246ft 454kts
10-Jul-19 14:27 37.405225 -117.256902 145 39240ft 454kts
10-Jul-19 14:28 37.300224 -117.167962 145 39209ft 454kts
10-Jul-19 14:29 37.195568 -117.079591 145 39186ft 454kts
10-Jul-19 14:30 37.090587 -116.990907 145 39189ft 454kts
10-Jul-19 14:31 36.986171 -116.902780 145 39175ft 454kts
10-Jul-19 14:32 36.881102 -116.814844 145 39161ft 453kts
10-Jul-19 14:33 36.787965 -116.711768 121 39156ft 451kts
10-Jul-19 14:34 36.728272 -116.574234 117 39145ft 450kts
10-Jul-19 14:35 36.670202 -116.436230 117 39136ft 450kts
10-Jul-19 14:36 36.612107 -116.297682 117 39132ft 450kts
10-Jul-19 14:37 36.554172 -116.159783 117 39129ft 450kts
10-Jul-19 14:38 36.495896 -116.021997 117 39129ft 450kts
10-Jul-19 14:39 36.437478 -115.884573 118 39125ft 450kts
10-Jul-19 14:40 36.378755 -115.747028 118 39121ft 450kts
10-Jul-19 14:41 36.320074 -115.610140 118 39110ft 450kts
10-Jul-19 14:42 36.257884 -115.475412 121 39089ft 450kts
10-Jul-19 14:44 36.192762 -115.343352 121 39067ft 450kts
10-Jul-19 14:45 36.127170 -115.210890 122 39056ft 450kts
10-Jul-19 14:46 36.062140 -115.079030 122 39052ft 450kts
10-Jul-19 14:47 35.996762 -114.947146 122 39062ft 450kts
10-Jul-19 14:48 35.931125 -114.815385 122 39050ft 450kts
10-Jul-19 14:49 35.865334 -114.683934 122 39045ft 450kts
10-Jul-19 14:50 35.799335 -114.552564 123 39037ft 450kts
10-Jul-19 14:51 35.733214 -114.421460 123 39050ft 450kts
10-Jul-19 14:52 35.666997 -114.290666 123 39062ft 451kts
10-Jul-19 14:53 35.600534 -114.159882 123 39082ft 451kts
10-Jul-19 14:54 35.533956 -114.029373 123 39110ft 450kts
10-Jul-19 14:55 35.467183 -113.898963 123 39145ft 451kts
10-Jul-19 14:56 35.400303 -113.768842 123 38684ft 449kts
10-Jul-19 14:57 35.333731 -113.639561 122 35916ft 450kts
10-Jul-19 14:58 35.266868 -113.509494 122 32867ft 452kts
10-Jul-19 14:59 35.200273 -113.381419 122 30334ft 437kts
10-Jul-19 15:00 35.135432 -113.259515 124 29271ft 426kts
10-Jul-19 15:01 35.069023 -113.138362 124 29146ft 431kts
10-Jul-19 15:02 35.002332 -113.018059 124 28269ft 425kts
10-Jul-19 15:02 34.947334 -112.919130 124 27553ft 421kts
10-Jul-19 15:04 34.871151 -112.782025 124 26551ft 414kts
10-Jul-19 15:05 34.807058 -112.666565 124 25701ft 409kts
10-Jul-19 15:05 34.753840 -112.571634 124 24977ft 405kts
10-Jul-19 15:07 34.671458 -112.449558 139 23678ft 399kts
10-Jul-19 15:07 34.600049 -112.379702 141 22278ft 389kts
10-Jul-19 15:08 34.516844 -112.298748 142 20645ft 378kts
10-Jul-19 15:09 34.431523 -112.229576 162 19073ft 356kts
10-Jul-19 15:10 34.338550 -112.202281 168 17736ft 336kts
10-Jul-19 15:11 34.247235 -112.178613 169 16462ft 334kts
10-Jul-19 15:12 34.156859 -112.155302 168 15156ft 331kts
10-Jul-19 15:13 34.070348 -112.131661 164 13915ft 305kts
10-Jul-19 15:14 33.991147 -112.098659 161 12705ft 300kts
10-Jul-19 15:15 33.911887 -112.066210 162 11553ft 298kts
10-Jul-19 15:16 33.833206 -112.034251 162 10344ft 295kts
10-Jul-19 15:17 33.754795 -112.002476 161 9135ft 296kts
10-Jul-19 15:18 33.679178 -111.971942 162 8408ft 282kts
10-Jul-19 15:19 33.606844 -111.942700 162 7742ft 267kts
10-Jul-19 15:20 33.538481 -111.910974 137 7098ft 253kts
10-Jul-19 15:21 33.525199 -111.834660 89 6268ft 242kts
10-Jul-19 15:22 33.520075 -111.755910 129 5098ft 232kts
10-Jul-19 15:23 33.463765 -111.746102 223 4237ft 218kts
10-Jul-19 15:24 33.434999 -111.804212 241 3532ft 191kts
10-Jul-19 15:25 33.428685 -111.865896 269 3020ft 179kts
10-Jul-19 15:26 33.428618 -111.919987 268 2484ft 152kts
10-Jul-19 15:27 33.428694 -111.969999 269 1669ft 147kts
10-Jul-19 15:28 33.428824 -112.015648 269 1143ft 74kts
10-Jul-19 15:29 33.429935 -112.024166 270 1143ft 18kts
10-Jul-19 15:30 33.432058 -112.025130 65 1143ft 3kts
10-Jul-19 15:31 33.432839 -112.021864 90 1143ft 19kts
10-Jul-19 15:32 33.432839 -112.014087 89 1143ft 30kts
10-Jul-19 15:33 33.432845 -112.005864 90 1143ft 22kts
10-Jul-19 15:34 33.432839 -111.997971 89 1143ft 22kts
10-Jul-19 15:35 33.433766 -111.993026 346 1143ft 10kts
10-Jul-19 15:36 33.434109 -111.993731 285 1143ft 0kts
10-Jul-19 15:37 33.434109 -111.993731 285 1143ft 0kts
10-Jul-19 15:38 33.434109 -111.993731 285 1143ft 0kts
10-Jul-19 15:39 33.434109 -111.993731 285 1143ft 0kts
10-Jul-19 15:40 33.434109 -111.993731 285 1143ft 0kts
10-Jul-19 15:41 33.434109 -111.993731 285 1143ft 0kts
10-Jul-19 15:42 33.434109 -111.993731 285 1143ft 0kts
10-Jul-19 15:43 33.434109 -111.993731 285 1143ft 0kts
10-Jul-19 15:44 33.434109 -111.993731 285 1143ft 0kts

Navigation Log

Ident Type
Flight plan parsing failed, navigation log unavailable